sensor_id;sensor_type;location;lat;lon;timestamp;P1;durP1;ratioP1;P2;durP2;ratioP2
78995;SDS011;68401;47.192;-1.552;2023-05-01T00:02:29;12.60;;;8.57;;
78995;SDS011;68401;47.192;-1.552;2023-05-01T00:05:02;10.88;;;7.78;;
78995;SDS011;68401;47.192;-1.552;2023-05-01T00:10:23;13.27;;;9.15;;
78995;SDS011;68401;47.192;-1.552;2023-05-01T00:12:51;11.55;;;7.95;;
78995;SDS011;68401;47.192;-1.552;2023-05-01T00:15:47;13.82;;;9.20;;
78995;SDS011;68401;47.192;-1.552;2023-05-01T00:18:15;11.75;;;8.50;;
78995;SDS011;68401;47.192;-1.552;2023-05-01T00:20:43;12.10;;;9.30;;
78995;SDS011;68401;47.192;-1.552;2023-05-01T00:26:29;11.48;;;9.48;;
78995;SDS011;68401;47.192;-1.552;2023-05-01T00:28:55;12.70;;;9.15;;
78995;SDS011;68401;47.192;-1.552;2023-05-01T00:34:47;11.27;;;7.93;;
78995;SDS011;68401;47.192;-1.552;2023-05-01T00:37:14;12.38;;;8.02;;
78995;SDS011;68401;47.192;-1.552;2023-05-01T00:39:41;12.43;;;9.05;;
78995;SDS011;68401;47.192;-1.552;2023-05-01T00:42:08;12.88;;;8.88;;
78995;SDS011;68401;47.192;-1.552;2023-05-01T00:44:35;13.43;;;8.65;;
78995;SDS011;68401;47.192;-1.552;2023-05-01T00:51:58;11.38;;;8.23;;
78995;SDS011;68401;47.192;-1.552;2023-05-01T00:54:50;17.10;;;8.75;;
78995;SDS011;68401;47.192;-1.552;2023-05-01T00:59:46;13.82;;;8.57;;
78995;SDS011;68401;47.192;-1.552;2023-05-01T01:02:17;13.88;;;8.82;;
78995;SDS011;68401;47.192;-1.552;2023-05-01T01:04:58;16.85;;;9.50;;
78995;SDS011;68401;47.192;-1.552;2023-05-01T01:08:01;14.00;;;8.95;;
78995;SDS011;68401;47.192;-1.552;2023-05-01T01:10:51;13.23;;;8.70;;
78995;SDS011;68401;47.192;-1.552;2023-05-01T01:13:42;17.02;;;9.23;;
78995;SDS011;68401;47.192;-1.552;2023-05-01T01:16:27;14.57;;;10.02;;
78995;SDS011;68401;47.192;-1.552;2023-05-01T01:22:14;13.75;;;9.80;;
78995;SDS011;68401;47.192;-1.552;2023-05-01T01:24:55;14.75;;;9.38;;
78995;SDS011;68401;47.192;-1.552;2023-05-01T01:35:45;15.60;;;9.27;;
78995;SDS011;68401;47.192;-1.552;2023-05-01T01:38:39;16.23;;;8.90;;
78995;SDS011;68401;47.192;-1.552;2023-05-01T01:41:23;16.17;;;10.50;;
78995;SDS011;68401;47.192;-1.552;2023-05-01T01:44:08;17.13;;;10.13;;
78995;SDS011;68401;47.192;-1.552;2023-05-01T01:46:52;15.98;;;10.27;;
78995;SDS011;68401;47.192;-1.552;2023-05-01T01:49:21;15.52;;;9.55;;
78995;SDS011;68401;47.192;-1.552;2023-05-01T01:51:50;20.40;;;11.00;;
78995;SDS011;68401;47.192;-1.552;2023-05-01T01:54:28;16.08;;;10.13;;
78995;SDS011;68401;47.192;-1.552;2023-05-01T01:57:22;16.55;;;10.38;;
78995;SDS011;68401;47.192;-1.552;2023-05-01T01:59:53;17.50;;;10.43;;
78995;SDS011;68401;47.192;-1.552;2023-05-01T02:04:48;19.05;;;9.98;;
78995;SDS011;68401;47.192;-1.552;2023-05-01T02:07:16;16.40;;;9.38;;
78995;SDS011;68401;47.192;-1.552;2023-05-01T02:09:47;17.88;;;11.63;;
78995;SDS011;68401;47.192;-1.552;2023-05-01T02:12:20;16.20;;;11.45;;
78995;SDS011;68401;47.192;-1.552;2023-05-01T02:14:47;18.40;;;11.13;;
78995;SDS011;68401;47.192;-1.552;2023-05-01T02:17:15;18.10;;;10.50;;
78995;SDS011;68401;47.192;-1.552;2023-05-01T02:19:41;20.30;;;11.23;;
78995;SDS011;68401;47.192;-1.552;2023-05-01T02:22:07;18.90;;;10.95;;
78995;SDS011;68401;47.192;-1.552;2023-05-01T02:24:34;17.23;;;9.43;;
78995;SDS011;68401;47.192;-1.552;2023-05-01T02:27:13;15.15;;;9.65;;
78995;SDS011;68401;47.192;-1.552;2023-05-01T02:29:40;14.00;;;8.45;;
78995;SDS011;68401;47.192;-1.552;2023-05-01T02:32:06;13.45;;;8.18;;
78995;SDS011;68401;47.192;-1.552;2023-05-01T02:34:35;15.20;;;9.68;;
78995;SDS011;68401;47.192;-1.552;2023-05-01T02:37:01;15.60;;;10.10;;
78995;SDS011;68401;47.192;-1.552;2023-05-01T02:39:27;13.80;;;10.43;;
78995;SDS011;68401;47.192;-1.552;2023-05-01T02:41:53;14.13;;;10.23;;
78995;SDS011;68401;47.192;-1.552;2023-05-01T02:44:19;13.30;;;8.80;;
78995;SDS011;68401;47.192;-1.552;2023-05-01T02:46:46;15.98;;;9.02;;
78995;SDS011;68401;47.192;-1.552;2023-05-01T02:49:13;13.55;;;9.25;;
78995;SDS011;68401;47.192;-1.552;2023-05-01T02:51:47;17.30;;;10.80;;
78995;SDS011;68401;47.192;-1.552;2023-05-01T02:54:30;17.02;;;9.57;;
78995;SDS011;68401;47.192;-1.552;2023-05-01T02:56:58;14.88;;;9.90;;
78995;SDS011;68401;47.192;-1.552;2023-05-01T02:59:26;14.75;;;9.75;;
78995;SDS011;68401;47.192;-1.552;2023-05-01T03:01:55;14.60;;;8.43;;
78995;SDS011;68401;47.192;-1.552;2023-05-01T03:04:49;15.70;;;8.68;;
78995;SDS011;68401;47.192;-1.552;2023-05-01T03:07:15;13.50;;;9.02;;
78995;SDS011;68401;47.192;-1.552;2023-05-01T03:09:41;15.30;;;9.52;;
78995;SDS011;68401;47.192;-1.552;2023-05-01T03:12:09;15.43;;;7.70;;
78995;SDS011;68401;47.192;-1.552;2023-05-01T03:14:37;13.18;;;8.07;;
78995;SDS011;68401;47.192;-1.552;2023-05-01T03:17:05;14.60;;;8.52;;
78995;SDS011;68401;47.192;-1.552;2023-05-01T03:19:33;15.10;;;8.32;;
78995;SDS011;68401;47.192;-1.552;2023-05-01T03:22:02;17.23;;;11.07;;
78995;SDS011;68401;47.192;-1.552;2023-05-01T03:24:31;17.33;;;10.55;;
78995;SDS011;68401;47.192;-1.552;2023-05-01T03:27:11;15.13;;;9.07;;
78995;SDS011;68401;47.192;-1.552;2023-05-01T03:29:37;13.52;;;8.32;;
78995;SDS011;68401;47.192;-1.552;2023-05-01T03:32:04;12.93;;;8.23;;
78995;SDS011;68401;47.192;-1.552;2023-05-01T03:34:32;14.75;;;8.52;;
78995;SDS011;68401;47.192;-1.552;2023-05-01T03:37:01;13.55;;;8.50;;
78995;SDS011;68401;47.192;-1.552;2023-05-01T03:39:28;12.80;;;9.13;;
78995;SDS011;68401;47.192;-1.552;2023-05-01T03:41:55;13.25;;;8.73;;
78995;SDS011;68401;47.192;-1.552;2023-05-01T03:44:21;15.25;;;8.93;;
78995;SDS011;68401;47.192;-1.552;2023-05-01T03:46:46;13.18;;;9.00;;
78995;SDS011;68401;47.192;-1.552;2023-05-01T03:49:12;12.98;;;8.50;;
78995;SDS011;68401;47.192;-1.552;2023-05-01T03:51:37;15.15;;;8.82;;
78995;SDS011;68401;47.192;-1.552;2023-05-01T03:54:02;15.00;;;9.13;;
78995;SDS011;68401;47.192;-1.552;2023-05-01T03:56:28;13.70;;;8.82;;
78995;SDS011;68401;47.192;-1.552;2023-05-01T03:58:59;15.48;;;8.32;;
78995;SDS011;68401;47.192;-1.552;2023-05-01T04:01:25;14.38;;;8.48;;
78995;SDS011;68401;47.192;-1.552;2023-05-01T04:03:50;17.15;;;10.57;;
78995;SDS011;68401;47.192;-1.552;2023-05-01T04:06:16;12.23;;;8.65;;
78995;SDS011;68401;47.192;-1.552;2023-05-01T04:08:42;16.45;;;9.93;;
78995;SDS011;68401;47.192;-1.552;2023-05-01T04:11:08;14.27;;;8.77;;
78995;SDS011;68401;47.192;-1.552;2023-05-01T04:13:34;14.55;;;8.95;;
78995;SDS011;68401;47.192;-1.552;2023-05-01T04:16:00;16.83;;;9.32;;
78995;SDS011;68401;47.192;-1.552;2023-05-01T04:18:26;13.75;;;8.60;;
78995;SDS011;68401;47.192;-1.552;2023-05-01T04:20:52;16.60;;;9.05;;
78995;SDS011;68401;47.192;-1.552;2023-05-01T04:26:43;13.30;;;7.78;;
78995;SDS011;68401;47.192;-1.552;2023-05-01T04:29:10;17.67;;;9.48;;
78995;SDS011;68401;47.192;-1.552;2023-05-01T04:31:50;16.35;;;9.48;;
78995;SDS011;68401;47.192;-1.552;2023-05-01T04:34:20;13.70;;;8.15;;
78995;SDS011;68401;47.192;-1.552;2023-05-01T04:36:49;17.17;;;9.75;;
78995;SDS011;68401;47.192;-1.552;2023-05-01T04:39:43;15.45;;;8.80;;
78995;SDS011;68401;47.192;-1.552;2023-05-01T04:42:12;13.65;;;7.57;;
78995;SDS011;68401;47.192;-1.552;2023-05-01T04:44:39;15.05;;;8.82;;
78995;SDS011;68401;47.192;-1.552;2023-05-01T04:47:05;13.35;;;7.93;;
78995;SDS011;68401;47.192;-1.552;2023-05-01T04:49:33;10.40;;;7.15;;
78995;SDS011;68401;47.192;-1.552;2023-05-01T04:52:01;13.63;;;8.05;;
78995;SDS011;68401;47.192;-1.552;2023-05-01T04:54:28;15.45;;;8.80;;
78995;SDS011;68401;47.192;-1.552;2023-05-01T04:56:56;14.07;;;9.07;;
78995;SDS011;68401;47.192;-1.552;2023-05-01T04:59:23;16.63;;;8.75;;
78995;SDS011;68401;47.192;-1.552;2023-05-01T05:01:57;11.38;;;7.63;;
78995;SDS011;68401;47.192;-1.552;2023-05-01T05:04:25;11.60;;;7.72;;
78995;SDS011;68401;47.192;-1.552;2023-05-01T05:06:53;15.85;;;8.35;;
78995;SDS011;68401;47.192;-1.552;2023-05-01T05:09:20;13.77;;;8.38;;
78995;SDS011;68401;47.192;-1.552;2023-05-01T05:11:54;14.57;;;8.82;;
78995;SDS011;68401;47.192;-1.552;2023-05-01T05:14:44;16.33;;;8.65;;
78995;SDS011;68401;47.192;-1.552;2023-05-01T05:17:12;13.20;;;8.13;;
78995;SDS011;68401;47.192;-1.552;2023-05-01T05:19:40;10.05;;;6.55;;
78995;SDS011;68401;47.192;-1.552;2023-05-01T05:22:59;14.57;;;7.13;;
78995;SDS011;68401;47.192;-1.552;2023-05-01T05:25:29;15.55;;;7.78;;
78995;SDS011;68401;47.192;-1.552;2023-05-01T05:27:59;10.95;;;7.18;;
78995;SDS011;68401;47.192;-1.552;2023-05-01T05:30:26;12.75;;;7.53;;
78995;SDS011;68401;47.192;-1.552;2023-05-01T05:32:53;16.27;;;7.13;;
78995;SDS011;68401;47.192;-1.552;2023-05-01T05:35:24;11.30;;;6.93;;
78995;SDS011;68401;47.192;-1.552;2023-05-01T05:37:52;12.15;;;7.43;;
78995;SDS011;68401;47.192;-1.552;2023-05-01T05:40:24;11.73;;;7.72;;
78995;SDS011;68401;47.192;-1.552;2023-05-01T05:42:52;13.55;;;6.47;;
78995;SDS011;68401;47.192;-1.552;2023-05-01T05:45:37;12.75;;;7.68;;
78995;SDS011;68401;47.192;-1.552;2023-05-01T05:48:16;11.75;;;7.30;;
78995;SDS011;68401;47.192;-1.552;2023-05-01T05:50:43;13.30;;;7.90;;
78995;SDS011;68401;47.192;-1.552;2023-05-01T05:53:25;11.30;;;6.78;;
78995;SDS011;68401;47.192;-1.552;2023-05-01T05:55:52;13.88;;;7.30;;
78995;SDS011;68401;47.192;-1.552;2023-05-01T05:58:17;10.80;;;6.35;;
78995;SDS011;68401;47.192;-1.552;2023-05-01T06:00:57;9.10;;;5.95;;
78995;SDS011;68401;47.192;-1.552;2023-05-01T06:03:44;12.00;;;7.63;;
78995;SDS011;68401;47.192;-1.552;2023-05-01T06:06:12;10.68;;;7.50;;
78995;SDS011;68401;47.192;-1.552;2023-05-01T06:08:39;10.45;;;6.40;;
78995;SDS011;68401;47.192;-1.552;2023-05-01T06:11:09;10.75;;;7.13;;
78995;SDS011;68401;47.192;-1.552;2023-05-01T06:13:37;13.23;;;7.10;;
78995;SDS011;68401;47.192;-1.552;2023-05-01T06:16:04;12.15;;;6.88;;
78995;SDS011;68401;47.192;-1.552;2023-05-01T06:21:19;10.48;;;6.50;;
78995;SDS011;68401;47.192;-1.552;2023-05-01T06:23:51;9.48;;;5.20;;
78995;SDS011;68401;47.192;-1.552;2023-05-01T06:26:19;8.15;;;6.63;;
78995;SDS011;68401;47.192;-1.552;2023-05-01T06:28:52;11.45;;;6.45;;
78995;SDS011;68401;47.192;-1.552;2023-05-01T06:31:22;11.52;;;6.30;;
78995;SDS011;68401;47.192;-1.552;2023-05-01T06:33:49;9.70;;;5.65;;
78995;SDS011;68401;47.192;-1.552;2023-05-01T06:36:16;6.28;;;4.78;;
78995;SDS011;68401;47.192;-1.552;2023-05-01T06:38:47;7.70;;;4.97;;
78995;SDS011;68401;47.192;-1.552;2023-05-01T06:41:14;6.57;;;4.90;;
78995;SDS011;68401;47.192;-1.552;2023-05-01T06:43:43;10.05;;;5.07;;
78995;SDS011;68401;47.192;-1.552;2023-05-01T06:46:16;7.82;;;4.78;;
78995;SDS011;68401;47.192;-1.552;2023-05-01T06:48:44;8.05;;;5.20;;
78995;SDS011;68401;47.192;-1.552;2023-05-01T06:51:16;9.65;;;5.13;;
78995;SDS011;68401;47.192;-1.552;2023-05-01T06:54:35;8.57;;;4.85;;
78995;SDS011;68401;47.192;-1.552;2023-05-01T06:57:02;9.75;;;5.70;;
78995;SDS011;68401;47.192;-1.552;2023-05-01T06:59:37;9.80;;;6.80;;
78995;SDS011;68401;47.192;-1.552;2023-05-01T07:02:10;10.15;;;7.28;;
78995;SDS011;68401;47.192;-1.552;2023-05-01T07:04:37;9.77;;;6.35;;
78995;SDS011;68401;47.192;-1.552;2023-05-01T07:07:37;7.70;;;6.10;;
78995;SDS011;68401;47.192;-1.552;2023-05-01T07:10:56;10.52;;;7.25;;
78995;SDS011;68401;47.192;-1.552;2023-05-01T07:13:05;11.25;;;7.70;;
78995;SDS011;68401;47.192;-1.552;2023-05-01T07:15:34;10.77;;;6.63;;
78995;SDS011;68401;47.192;-1.552;2023-05-01T07:18:03;8.55;;;5.88;;
78995;SDS011;68401;47.192;-1.552;2023-05-01T07:20:34;11.23;;;7.40;;
78995;SDS011;68401;47.192;-1.552;2023-05-01T07:23:02;9.70;;;6.03;;
78995;SDS011;68401;47.192;-1.552;2023-05-01T07:25:29;10.85;;;6.50;;
78995;SDS011;68401;47.192;-1.552;2023-05-01T07:28:06;9.00;;;6.13;;
78995;SDS011;68401;47.192;-1.552;2023-05-01T07:30:33;9.65;;;6.03;;
78995;SDS011;68401;47.192;-1.552;2023-05-01T07:33:02;9.27;;;5.78;;
78995;SDS011;68401;47.192;-1.552;2023-05-01T07:38:25;8.50;;;6.38;;
78995;SDS011;68401;47.192;-1.552;2023-05-01T07:41:12;10.40;;;6.65;;
78995;SDS011;68401;47.192;-1.552;2023-05-01T07:43:39;7.75;;;5.20;;
78995;SDS011;68401;47.192;-1.552;2023-05-01T07:46:10;10.93;;;5.40;;
78995;SDS011;68401;47.192;-1.552;2023-05-01T07:48:51;7.05;;;4.80;;
78995;SDS011;68401;47.192;-1.552;2023-05-01T07:51:19;8.45;;;4.45;;
78995;SDS011;68401;47.192;-1.552;2023-05-01T07:53:48;6.88;;;4.15;;
78995;SDS011;68401;47.192;-1.552;2023-05-01T07:58:51;9.10;;;4.72;;
78995;SDS011;68401;47.192;-1.552;2023-05-01T08:01:29;7.03;;;4.72;;
78995;SDS011;68401;47.192;-1.552;2023-05-01T08:04:01;7.57;;;4.35;;
78995;SDS011;68401;47.192;-1.552;2023-05-01T08:06:38;7.05;;;4.03;;
78995;SDS011;68401;47.192;-1.552;2023-05-01T08:09:08;8.93;;;4.47;;
78995;SDS011;68401;47.192;-1.552;2023-05-01T08:11:48;6.88;;;4.38;;
78995;SDS011;68401;47.192;-1.552;2023-05-01T08:16:44;11.18;;;5.32;;
78995;SDS011;68401;47.192;-1.552;2023-05-01T08:21:46;7.13;;;4.38;;
78995;SDS011;68401;47.192;-1.552;2023-05-01T08:24:14;9.07;;;4.15;;
78995;SDS011;68401;47.192;-1.552;2023-05-01T08:26:54;8.40;;;5.15;;
78995;SDS011;68401;47.192;-1.552;2023-05-01T08:29:22;10.23;;;4.65;;
78995;SDS011;68401;47.192;-1.552;2023-05-01T08:31:48;7.10;;;4.10;;
78995;SDS011;68401;47.192;-1.552;2023-05-01T08:34:17;7.28;;;4.38;;
78995;SDS011;68401;47.192;-1.552;2023-05-01T08:36:44;6.60;;;4.00;;
78995;SDS011;68401;47.192;-1.552;2023-05-01T08:41:53;6.45;;;3.53;;
78995;SDS011;68401;47.192;-1.552;2023-05-01T08:44:23;6.13;;;3.95;;
78995;SDS011;68401;47.192;-1.552;2023-05-01T08:50:28;6.75;;;3.30;;
78995;SDS011;68401;47.192;-1.552;2023-05-01T08:53:02;7.90;;;3.10;;
78995;SDS011;68401;47.192;-1.552;2023-05-01T08:55:31;10.98;;;3.78;;
78995;SDS011;68401;47.192;-1.552;2023-05-01T08:58:02;6.80;;;3.72;;
78995;SDS011;68401;47.192;-1.552;2023-05-01T09:03:32;6.55;;;3.22;;
78995;SDS011;68401;47.192;-1.552;2023-05-01T09:05:59;9.05;;;3.55;;
78995;SDS011;68401;47.192;-1.552;2023-05-01T09:13:32;5.30;;;3.00;;
78995;SDS011;68401;47.192;-1.552;2023-05-01T09:17:18;16.50;;;8.88;;
78995;SDS011;68401;47.192;-1.552;2023-05-01T09:19:47;6.25;;;3.20;;
78995;SDS011;68401;47.192;-1.552;2023-05-01T09:22:15;6.95;;;2.63;;
78995;SDS011;68401;47.192;-1.552;2023-05-01T09:24:47;5.18;;;2.35;;
78995;SDS011;68401;47.192;-1.552;2023-05-01T09:27:15;6.43;;;2.25;;
78995;SDS011;68401;47.192;-1.552;2023-05-01T09:29:46;6.63;;;4.70;;
78995;SDS011;68401;47.192;-1.552;2023-05-01T09:32:20;5.60;;;2.35;;
78995;SDS011;68401;47.192;-1.552;2023-05-01T09:34:52;4.95;;;2.35;;
78995;SDS011;68401;47.192;-1.552;2023-05-01T09:37:28;4.82;;;2.60;;
78995;SDS011;68401;47.192;-1.552;2023-05-01T09:40:30;6.57;;;2.45;;
78995;SDS011;68401;47.192;-1.552;2023-05-01T09:42:52;6.50;;;2.17;;
78995;SDS011;68401;47.192;-1.552;2023-05-01T09:45:22;5.93;;;2.42;;
78995;SDS011;68401;47.192;-1.552;2023-05-01T09:48:09;4.53;;;2.40;;
78995;SDS011;68401;47.192;-1.552;2023-05-01T09:50:35;7.85;;;5.63;;
78995;SDS011;68401;47.192;-1.552;2023-05-01T09:53:02;6.43;;;2.53;;
78995;SDS011;68401;47.192;-1.552;2023-05-01T09:55:31;4.47;;;2.10;;
78995;SDS011;68401;47.192;-1.552;2023-05-01T09:57:58;6.03;;;2.30;;
78995;SDS011;68401;47.192;-1.552;2023-05-01T10:00:26;4.88;;;1.98;;
78995;SDS011;68401;47.192;-1.552;2023-05-01T10:02:52;3.78;;;2.03;;
78995;SDS011;68401;47.192;-1.552;2023-05-01T10:05:19;6.07;;;2.45;;
78995;SDS011;68401;47.192;-1.552;2023-05-01T10:07:59;5.82;;;2.80;;
78995;SDS011;68401;47.192;-1.552;2023-05-01T10:10:28;5.93;;;2.60;;
78995;SDS011;68401;47.192;-1.552;2023-05-01T10:13:17;4.07;;;2.42;;
78995;SDS011;68401;47.192;-1.552;2023-05-01T10:15:45;5.47;;;2.22;;
78995;SDS011;68401;47.192;-1.552;2023-05-01T10:21:11;4.10;;;2.20;;
78995;SDS011;68401;47.192;-1.552;2023-05-01T10:23:40;4.05;;;2.15;;
78995;SDS011;68401;47.192;-1.552;2023-05-01T10:28:36;4.85;;;2.78;;
78995;SDS011;68401;47.192;-1.552;2023-05-01T10:31:03;4.40;;;2.22;;
78995;SDS011;68401;47.192;-1.552;2023-05-01T10:33:31;3.50;;;1.83;;
78995;SDS011;68401;47.192;-1.552;2023-05-01T10:35:59;8.30;;;2.63;;
78995;SDS011;68401;47.192;-1.552;2023-05-01T10:38:25;6.05;;;2.25;;
78995;SDS011;68401;47.192;-1.552;2023-05-01T10:40:56;3.78;;;1.90;;
78995;SDS011;68401;47.192;-1.552;2023-05-01T10:43:27;5.13;;;2.03;;
78995;SDS011;68401;47.192;-1.552;2023-05-01T10:51:09;5.38;;;2.05;;
78995;SDS011;68401;47.192;-1.552;2023-05-01T10:53:39;5.10;;;2.15;;
78995;SDS011;68401;47.192;-1.552;2023-05-01T11:01:31;4.82;;;2.13;;
78995;SDS011;68401;47.192;-1.552;2023-05-01T11:12:02;4.50;;;2.05;;
78995;SDS011;68401;47.192;-1.552;2023-05-01T11:22:43;4.63;;;2.00;;
78995;SDS011;68401;47.192;-1.552;2023-05-01T11:25:18;4.45;;;2.17;;
78995;SDS011;68401;47.192;-1.552;2023-05-01T11:27:48;4.70;;;2.20;;
78995;SDS011;68401;47.192;-1.552;2023-05-01T11:30:16;5.63;;;1.88;;
78995;SDS011;68401;47.192;-1.552;2023-05-01T11:32:42;4.90;;;2.05;;
78995;SDS011;68401;47.192;-1.552;2023-05-01T11:35:19;6.03;;;2.28;;
78995;SDS011;68401;47.192;-1.552;2023-05-01T11:37:50;6.75;;;3.00;;
78995;SDS011;68401;47.192;-1.552;2023-05-01T11:40:20;7.15;;;2.20;;
78995;SDS011;68401;47.192;-1.552;2023-05-01T11:42:46;6.10;;;2.38;;
78995;SDS011;68401;47.192;-1.552;2023-05-01T11:45:12;4.03;;;1.83;;
78995;SDS011;68401;47.192;-1.552;2023-05-01T11:47:38;4.05;;;2.53;;
78995;SDS011;68401;47.192;-1.552;2023-05-01T11:50:05;7.72;;;2.53;;
78995;SDS011;68401;47.192;-1.552;2023-05-01T11:52:47;3.42;;;1.95;;
78995;SDS011;68401;47.192;-1.552;2023-05-01T11:55:13;5.25;;;2.50;;
78995;SDS011;68401;47.192;-1.552;2023-05-01T11:57:50;7.05;;;2.17;;
78995;SDS011;68401;47.192;-1.552;2023-05-01T12:03:04;5.45;;;2.25;;
78995;SDS011;68401;47.192;-1.552;2023-05-01T12:05:30;4.38;;;2.00;;
78995;SDS011;68401;47.192;-1.552;2023-05-01T12:10:54;6.00;;;2.38;;
78995;SDS011;68401;47.192;-1.552;2023-05-01T12:13:21;5.38;;;2.28;;
78995;SDS011;68401;47.192;-1.552;2023-05-01T12:15:52;23.88;;;16.38;;
78995;SDS011;68401;47.192;-1.552;2023-05-01T12:18:19;4.60;;;2.00;;
78995;SDS011;68401;47.192;-1.552;2023-05-01T12:21:13;6.03;;;2.00;;
78995;SDS011;68401;47.192;-1.552;2023-05-01T12:26:51;5.25;;;2.45;;
78995;SDS011;68401;47.192;-1.552;2023-05-01T12:29:39;5.25;;;2.00;;
78995;SDS011;68401;47.192;-1.552;2023-05-01T12:32:05;6.18;;;2.40;;
78995;SDS011;68401;47.192;-1.552;2023-05-01T12:34:31;5.70;;;2.00;;
78995;SDS011;68401;47.192;-1.552;2023-05-01T12:36:58;6.55;;;2.17;;
78995;SDS011;68401;47.192;-1.552;2023-05-01T12:39:24;3.53;;;2.13;;
78995;SDS011;68401;47.192;-1.552;2023-05-01T12:41:50;8.60;;;2.42;;
78995;SDS011;68401;47.192;-1.552;2023-05-01T12:44:21;4.38;;;2.20;;
78995;SDS011;68401;47.192;-1.552;2023-05-01T12:49:30;3.80;;;2.17;;
78995;SDS011;68401;47.192;-1.552;2023-05-01T12:51:58;6.20;;;2.17;;
78995;SDS011;68401;47.192;-1.552;2023-05-01T12:57:07;4.50;;;1.95;;
78995;SDS011;68401;47.192;-1.552;2023-05-01T12:59:39;3.97;;;1.80;;
78995;SDS011;68401;47.192;-1.552;2023-05-01T13:02:13;3.45;;;2.22;;
78995;SDS011;68401;47.192;-1.552;2023-05-01T13:04:39;3.30;;;2.00;;
78995;SDS011;68401;47.192;-1.552;2023-05-01T13:07:12;5.00;;;2.10;;
78995;SDS011;68401;47.192;-1.552;2023-05-01T13:09:49;6.38;;;2.10;;
78995;SDS011;68401;47.192;-1.552;2023-05-01T13:12:16;3.55;;;2.08;;
78995;SDS011;68401;47.192;-1.552;2023-05-01T13:14:41;4.75;;;2.30;;
78995;SDS011;68401;47.192;-1.552;2023-05-01T13:17:07;8.88;;;2.25;;
78995;SDS011;68401;47.192;-1.552;2023-05-01T13:19:33;4.22;;;2.10;;
78995;SDS011;68401;47.192;-1.552;2023-05-01T13:21:59;7.72;;;2.78;;
78995;SDS011;68401;47.192;-1.552;2023-05-01T13:27:09;3.35;;;1.83;;
78995;SDS011;68401;47.192;-1.552;2023-05-01T13:29:35;5.55;;;1.90;;
78995;SDS011;68401;47.192;-1.552;2023-05-01T13:32:02;6.35;;;2.03;;
78995;SDS011;68401;47.192;-1.552;2023-05-01T13:34:29;4.60;;;2.33;;
78995;SDS011;68401;47.192;-1.552;2023-05-01T13:36:56;5.40;;;2.33;;
78995;SDS011;68401;47.192;-1.552;2023-05-01T13:39:22;5.38;;;2.10;;
78995;SDS011;68401;47.192;-1.552;2023-05-01T13:41:48;5.60;;;2.00;;
78995;SDS011;68401;47.192;-1.552;2023-05-01T13:44:15;4.53;;;1.95;;
78995;SDS011;68401;47.192;-1.552;2023-05-01T13:46:41;5.25;;;2.53;;
78995;SDS011;68401;47.192;-1.552;2023-05-01T13:49:07;4.10;;;2.03;;
78995;SDS011;68401;47.192;-1.552;2023-05-01T13:51:33;4.35;;;1.80;;
78995;SDS011;68401;47.192;-1.552;2023-05-01T13:54:01;4.90;;;1.60;;
78995;SDS011;68401;47.192;-1.552;2023-05-01T13:56:28;7.70;;;2.80;;
78995;SDS011;68401;47.192;-1.552;2023-05-01T13:58:53;5.07;;;2.50;;
78995;SDS011;68401;47.192;-1.552;2023-05-01T14:01:20;5.15;;;3.33;;
78995;SDS011;68401;47.192;-1.552;2023-05-01T14:03:46;5.60;;;3.05;;
78995;SDS011;68401;47.192;-1.552;2023-05-01T14:06:12;4.97;;;2.33;;
78995;SDS011;68401;47.192;-1.552;2023-05-01T14:08:45;3.03;;;1.73;;
78995;SDS011;68401;47.192;-1.552;2023-05-01T14:11:12;7.55;;;2.75;;
78995;SDS011;68401;47.192;-1.552;2023-05-01T14:13:42;8.25;;;5.22;;
78995;SDS011;68401;47.192;-1.552;2023-05-01T14:16:09;6.68;;;2.53;;
78995;SDS011;68401;47.192;-1.552;2023-05-01T14:18:55;5.93;;;2.67;;
78995;SDS011;68401;47.192;-1.552;2023-05-01T14:21:23;3.60;;;1.70;;
78995;SDS011;68401;47.192;-1.552;2023-05-01T14:23:51;5.28;;;2.30;;
78995;SDS011;68401;47.192;-1.552;2023-05-01T14:26:17;5.50;;;1.90;;
78995;SDS011;68401;47.192;-1.552;2023-05-01T14:28:43;4.30;;;1.75;;
78995;SDS011;68401;47.192;-1.552;2023-05-01T14:31:13;5.20;;;1.67;;
78995;SDS011;68401;47.192;-1.552;2023-05-01T14:33:41;4.30;;;2.42;;
78995;SDS011;68401;47.192;-1.552;2023-05-01T14:38:36;3.17;;;1.58;;
78995;SDS011;68401;47.192;-1.552;2023-05-01T14:41:03;4.70;;;2.75;;
78995;SDS011;68401;47.192;-1.552;2023-05-01T14:43:29;3.88;;;1.60;;
78995;SDS011;68401;47.192;-1.552;2023-05-01T14:45:55;3.20;;;2.30;;
78995;SDS011;68401;47.192;-1.552;2023-05-01T14:48:22;3.20;;;1.77;;
78995;SDS011;68401;47.192;-1.552;2023-05-01T14:50:48;4.03;;;2.10;;
78995;SDS011;68401;47.192;-1.552;2023-05-01T14:53:14;3.30;;;1.63;;
78995;SDS011;68401;47.192;-1.552;2023-05-01T14:55:40;4.43;;;1.90;;
78995;SDS011;68401;47.192;-1.552;2023-05-01T14:58:06;3.88;;;1.85;;
78995;SDS011;68401;47.192;-1.552;2023-05-01T15:00:31;6.55;;;2.10;;
78995;SDS011;68401;47.192;-1.552;2023-05-01T15:02:57;8.82;;;2.20;;
78995;SDS011;68401;47.192;-1.552;2023-05-01T15:05:22;3.95;;;1.98;;
78995;SDS011;68401;47.192;-1.552;2023-05-01T15:07:50;4.55;;;2.40;;
78995;SDS011;68401;47.192;-1.552;2023-05-01T15:10:16;6.05;;;2.10;;
78995;SDS011;68401;47.192;-1.552;2023-05-01T15:12:41;4.30;;;1.90;;
78995;SDS011;68401;47.192;-1.552;2023-05-01T15:15:07;4.85;;;1.70;;
78995;SDS011;68401;47.192;-1.552;2023-05-01T15:17:33;5.20;;;3.03;;
78995;SDS011;68401;47.192;-1.552;2023-05-01T15:19:59;4.05;;;1.60;;
78995;SDS011;68401;47.192;-1.552;2023-05-01T15:22:24;5.70;;;1.90;;
78995;SDS011;68401;47.192;-1.552;2023-05-01T15:24:49;4.95;;;1.75;;
78995;SDS011;68401;47.192;-1.552;2023-05-01T15:27:15;9.40;;;5.40;;
78995;SDS011;68401;47.192;-1.552;2023-05-01T15:29:41;17.67;;;9.40;;
78995;SDS011;68401;47.192;-1.552;2023-05-01T15:32:07;5.95;;;3.88;;
78995;SDS011;68401;47.192;-1.552;2023-05-01T15:34:33;3.17;;;1.55;;
78995;SDS011;68401;47.192;-1.552;2023-05-01T15:36:58;4.60;;;2.05;;
78995;SDS011;68401;47.192;-1.552;2023-05-01T15:39:23;4.88;;;2.30;;
78995;SDS011;68401;47.192;-1.552;2023-05-01T15:41:49;4.15;;;1.85;;
78995;SDS011;68401;47.192;-1.552;2023-05-01T15:44:16;3.03;;;1.80;;
78995;SDS011;68401;47.192;-1.552;2023-05-01T15:46:41;5.53;;;1.95;;
78995;SDS011;68401;47.192;-1.552;2023-05-01T15:49:07;5.00;;;2.30;;
78995;SDS011;68401;47.192;-1.552;2023-05-01T15:51:33;8.70;;;2.10;;
78995;SDS011;68401;47.192;-1.552;2023-05-01T15:53:59;3.65;;;1.80;;
78995;SDS011;68401;47.192;-1.552;2023-05-01T15:56:26;4.70;;;1.70;;
78995;SDS011;68401;47.192;-1.552;2023-05-01T15:58:52;3.85;;;1.88;;
78995;SDS011;68401;47.192;-1.552;2023-05-01T16:01:17;4.80;;;1.90;;
78995;SDS011;68401;47.192;-1.552;2023-05-01T16:03:44;4.65;;;1.90;;
78995;SDS011;68401;47.192;-1.552;2023-05-01T16:06:11;6.90;;;2.22;;
78995;SDS011;68401;47.192;-1.552;2023-05-01T16:08:38;6.25;;;2.85;;
78995;SDS011;68401;47.192;-1.552;2023-05-01T16:11:03;4.63;;;2.15;;
78995;SDS011;68401;47.192;-1.552;2023-05-01T16:13:29;8.95;;;2.50;;
78995;SDS011;68401;47.192;-1.552;2023-05-01T16:15:54;3.47;;;1.73;;
78995;SDS011;68401;47.192;-1.552;2023-05-01T16:18:21;3.13;;;1.70;;
78995;SDS011;68401;47.192;-1.552;2023-05-01T16:20:48;4.57;;;1.70;;
78995;SDS011;68401;47.192;-1.552;2023-05-01T16:23:17;3.80;;;1.60;;
78995;SDS011;68401;47.192;-1.552;2023-05-01T16:25:43;5.25;;;2.97;;
78995;SDS011;68401;47.192;-1.552;2023-05-01T16:28:09;6.35;;;3.28;;
78995;SDS011;68401;47.192;-1.552;2023-05-01T16:30:39;10.18;;;3.35;;
78995;SDS011;68401;47.192;-1.552;2023-05-01T16:33:07;6.45;;;2.05;;
78995;SDS011;68401;47.192;-1.552;2023-05-01T16:35:35;4.95;;;2.10;;
78995;SDS011;68401;47.192;-1.552;2023-05-01T16:38:00;4.93;;;2.38;;
78995;SDS011;68401;47.192;-1.552;2023-05-01T16:40:26;5.82;;;2.50;;
78995;SDS011;68401;47.192;-1.552;2023-05-01T16:42:52;6.70;;;2.63;;